Mears, Virginia
Current Conditions -  °F | °C
As of 3:54 AM on Thursday 23 Oct 2014 (Local Time) from KWAL Reporting Station
Overcast Overcast  
Wind Chill: 54°   Ceiling: 2400
Heat Index: 54°   Visibility: 10mi
Dew Point: 47°   Wind: 18mph
Humidity: 77%   Direction: 330°NNW
Pressure: 29.78"   Gusts: 26mph
Location:  37.86°N, 75.62°W
Report Text: KWAL 230754Z AUTO 33016G23KT 10SM OVC024 12/08 A2978 RMK AO2 SLP081 T01220083
Loading
Personal Weather Stations






























Interactive Weather Map
Tropical Storm Tracking
New forecast layout! Learn more

10-Day Weather Forecast

Advertisements
Track Severe Weather on mobile